Latest Coastal Weather Observations for Port Kembla Harbour

IDN60701

Issued at 8:11 am EDT Thursday 24 October 2019 (issued every 10 minutes, with the page automatically refreshed every 10 minutes)

About coastal observations | Map of coastal stations | Coastal observations for NSW | Marine services | Other Formats
Station Details ID: 068253 Name: PORT KEMBLA NTC AWS Lat: -34.47 Lon: 150.91 Height: 0.0 m
Data from the previous 72 hours. | See also: Recent months for locations in New South Wales
Date/Time
EDT
Wind Sea
Height
m
Swell Vis
km
Cloud Weather Temp
°C
Press
hPa
Rain since
9am
mm
Dir  Spd
kts
Gust
kts
Height
m
Period
s
Dir
24/08:00am S 2 5 - - - - - - - 18.9 1018.2 -
24/07:30am WSW 2 5 - - - - - - - 17.8 1018.0 -
24/07:00am S 1 3 - - - - - - - 17.1 1017.7 -
24/06:30am W 1 2 - - - - - - - 16.4 1017.5 -
24/06:00am W 1 2 - - - - - - - 16.7 1017.3 -
24/05:30am WSW 3 4 - - - - - - - 16.7 1017.0 -
24/05:00am SW 4 7 - - - - - - - 17.4 1016.8 -
24/04:30am S 4 9 - - - - - - - 17.8 1016.7 -
24/04:00am SSW 4 7 - - - - - - - 17.9 1016.8 -
24/03:30am SSE 3 6 - - - - - - - 17.5 1016.8 -
24/03:00am SSE 3 4 - - - - - - - 17.1 1017.0 -
24/02:30am SE 4 5 - - - - - - - 17.2 1017.2 -
24/02:00am SW 2 2 - - - - - - - 17.7 1017.3 -
24/01:30am WSW 3 5 - - - - - - - 18.0 1017.5 -
24/01:00am SSW 3 7 - - - - - - - 18.2 1017.9 -
24/12:30am WSW 6 11 - - - - - - - 18.4 1018.0 -
24/12:00am WSW 6 8 - - - - - - - 18.6 1018.2 -
 
Date/Time
EDT
Wind Sea
Height
m
Swell Vis
km
Cloud Weather Temp
°C
Press
hPa
Rain since
9am
mm
Dir  Spd
kts
Gust
kts
Height
m
Period
s
Dir
23/11:30pm WSW 7 10 - - - - - - - 18.7 1018.3 -
23/11:00pm WSW 4 6 - - - - - - - 18.4 1018.1 -
23/10:30pm SSE 1 3 - - - - - - - 18.4 1018.1 -
23/10:00pm E 1 3 - - - - - - - 18.2 1017.9 -
23/09:30pm NNE 1 3 - - - - - - - 18.2 1017.7 -
23/09:00pm N 3 5 - - - - - - - 18.5 1017.7 -
23/08:30pm N 5 7 - - - - - - - 18.7 1017.4 -
23/08:00pm N 2 3 - - - - - - - 18.9 1017.3 -
23/07:30pm NNE 3 6 - - - - - - - 18.7 1017.1 -
23/07:00pm NNE 10 14 - - - - - - - 19.0 1016.9 -
23/06:30pm NNE 8 12 - - - - - - - 19.0 1016.9 -
23/06:00pm NNE 8 12 - - - - - - - 19.1 1016.5 -
23/05:30pm N 9 13 - - - - - - - 19.2 1016.6 -
23/05:00pm NNE 10 14 - - - - - - - 19.2 1016.5 -
23/04:30pm N 6 10 - - - - - - - 19.8 1016.6 -
23/04:00pm N 5 9 - - - - - - - 19.6 1016.8 -
23/03:30pm N 10 15 - - - - - - - 19.3 1017.0 -
23/03:00pm NNE 10 15 - - - - - - - 19.3 1017.3 -
23/02:30pm NE 13 17 - - - - - - - 19.2 1017.6 -
23/02:00pm NE 15 21 - - - - - - - 19.2 1018.0 -
23/01:30pm NE 16 21 - - - - - - - 19.1 1018.5 -
23/01:00pm NE 15 20 - - - - - - - 19.0 1019.2 -
23/12:30pm NE 14 20 - - - - - - - 18.9 1019.6 -
23/12:00pm NE 14 19 - - - - - - - 18.9 1020.2 -
23/11:30am NE 14 19 - - - - - - - 19.2 1020.8 -
23/11:00am NE 10 15 - - - - - - - 19.1 1021.4 -
23/10:30am NE 11 14 - - - - - - - 18.9 1021.9 -
23/10:00am NE 8 11 - - - - - - - 18.5 1022.4 -
23/09:30am NE 8 11 - - - - - - - 18.4 1022.6 -
23/09:00am NNE 7 10 - - - - - - - 18.7 1022.9 -
23/08:30am N 9 12 - - - - - - - 18.5 1023.0 -
23/08:00am NNE 10 13 - - - - - - - 17.9 1023.0 -
23/07:30am NNE 5 8 - - - - - - - 17.9 1023.0 -
23/07:00am N 4 5 - - - - - - - 17.6 1022.9 -
23/06:30am NNW 4 6 - - - - - - - 17.1 1022.8 -
23/06:00am N 3 5 - - - - - - - 17.1 1022.8 -
23/05:30am N 3 5 - - - - - - - 17.1 1022.7 -
23/05:00am N 3 5 - - - - - - - 17.1 1022.7 -
23/04:30am NNW 2 3 - - - - - - - 17.2 1022.6 -
23/04:00am NNW 3 5 - - - - - - - 17.3 1022.7 -
23/03:30am SW 2 3 - - - - - - - 16.9 1022.8 -
23/03:00am WSW 2 4 - - - - - - - 17.1 1022.9 -
23/02:30am WSW 3 4 - - - - - - - 17.5 1023.1 -
23/02:00am NNW 1 2 - - - - - - - 18.1 1023.3 -
23/01:30am N 2 3 - - - - - - - 18.1 1023.8 -
23/01:00am NNE 2 3 - - - - - - - 18.1 1024.2 -
23/12:30am NNE 3 6 - - - - - - - 18.1 1024.6 -
23/12:00am NE 3 5 - - - - - - - 17.9 1024.9 -
 
Date/Time
EDT
Wind Sea
Height
m
Swell Vis
km
Cloud Weather Temp
°C
Press
hPa
Rain since
9am
mm
Dir  Spd
kts
Gust
kts
Height
m
Period
s
Dir
22/11:30pm ENE 4 7 - - - - - - - 18.0 1025.0 -
22/11:00pm ENE 4 7 - - - - - - - 18.1 1024.8 -
22/10:30pm NE 4 6 - - - - - - - 18.0 1024.9 -
22/10:00pm ENE 4 5 - - - - - - - 18.1 1025.0 -
22/09:30pm ENE 4 7 - - - - - - - 18.2 1024.9 -
22/09:00pm E 4 7 - - - - - - - 18.1 1024.7 -
22/08:30pm E 5 8 - - - - - - - 18.2 1024.3 -
22/08:00pm E 3 7 - - - - - - - 18.2 1023.9 -
22/07:30pm E 4 7 - - - - - - - 18.3 1023.7 -
22/07:00pm ENE 3 4 - - - - - - - 18.6 1023.2 -
22/06:30pm ENE 2 4 - - - - - - - 18.8 1022.7 -
22/06:00pm ENE 3 4 - - - - - - - 18.8 1022.5 -
22/05:30pm NE 4 5 - - - - - - - 19.1 1022.3 -
22/05:00pm NE 4 6 - - - - - - - 19.2 1021.9 -
22/04:30pm NE 5 8 - - - - - - - 18.8 1021.6 -
22/04:00pm NE 6 8 - - - - - - - 18.8 1021.5 -
22/03:30pm NNE 7 11 - - - - - - - 18.8 1021.6 -
22/03:00pm NNE 7 10 - - - - - - - 18.8 1021.8 -
22/02:30pm NNE 7 10 - - - - - - - 18.9 1022.1 -
22/02:00pm NE 9 13 - - - - - - - 18.8 1022.4 -
22/01:30pm NE 8 11 - - - - - - - 18.7 1022.8 -
22/01:00pm NE 8 13 - - - - - - - 18.6 1022.9 -
22/12:30pm NE 9 13 - - - - - - - 18.7 1023.2 -
22/12:00pm NE 8 12 - - - - - - - 18.6 1023.6 -
22/11:30am NE 8 12 - - - - - - - 18.4 1024.0 -
22/11:00am NE 7 10 - - - - - - - 18.4 1024.4 -
22/10:30am ENE 5 7 - - - - - - - 18.3 1024.8 -
22/10:00am NE 6 8 - - - - - - - 17.7 1024.9 -
22/09:30am ENE 4 6 - - - - - - - 17.4 1024.9 -
22/09:00am NE 4 5 - - - - - - - 17.2 1024.9 -
22/08:30am NE 3 5 - - - - - - - 16.8 1024.9 -
22/08:00am NE 5 7 - - - - - - - 16.4 1024.9 -
22/07:30am NE 3 4 - - - - - - - 16.6 1024.7 -
22/07:00am SSW 1 2 - - - - - - - 15.9 1024.6 -
22/06:30am CALM 0 1 - - - - - - - 15.7 1024.3 -
22/06:00am CALM 0 1 - - - - - - - 15.1 1024.2 -
22/05:30am SW 1 2 - - - - - - - 15.2 1024.0 -
22/05:00am WSW 1 1 - - - - - - - 15.0 1023.8 -
22/04:30am WSW 2 3 - - - - - - - 14.8 1023.7 -
22/04:00am WNW 1 3 - - - - - - - 15.5 1023.8 -
22/03:30am SW 3 3 - - - - - - - 14.9 1024.2 -
22/03:00am WSW 2 3 - - - - - - - 15.0 1024.2 -
22/02:30am WSW 2 3 - - - - - - - 15.0 1024.5 -
22/02:00am SW 3 3 - - - - - - - 15.0 1024.8 -
22/01:30am NW 3 5 - - - - - - - 16.4 1025.1 -
22/01:00am WSW 3 5 - - - - - - - 15.5 1025.6 -
22/12:30am WSW 4 5 - - - - - - - 15.7 1025.9 -
22/12:00am WSW 5 6 - - - - - - - 15.8 1026.0 -
 
Date/Time
EDT
Wind Sea
Height
m
Swell Vis
km
Cloud Weather Temp
°C
Press
hPa
Rain since
9am
mm
Dir  Spd
kts
Gust
kts
Height
m
Period
s
Dir
21/11:30pm WSW 4 5 - - - - - - - 16.1 1025.9 -
21/11:00pm WSW 3 4 - - - - - - - 16.3 1025.8 -
21/10:30pm WSW 3 4 - - - - - - - 16.3 1026.0 -
21/10:00pm N 2 4 - - - - - - - 16.7 1026.2 -
21/09:30pm CALM 0 1 - - - - - - - 17.6 1026.1 -
21/09:00pm E 2 3 - - - - - - - 17.6 1026.0 -
21/08:30pm SE 2 3 - - - - - - - 17.9 1025.9 -
21/08:00pm ESE 2 4 - - - - - - - 18.0 1025.8 -
21/07:30pm E 2 3 - - - - - - - 18.1 1025.5 -
21/07:00pm E 3 4 - - - - - - - 18.3 1025.1 -
21/06:30pm E 3 5 - - - - - - - 18.5 1024.9 -
21/06:00pm E 3 5 - - - - - - - 18.5 1024.6 -
21/05:30pm ENE 4 7 - - - - - - - 18.6 1024.3 -
21/05:00pm ENE 4 6 - - - - - - - 18.5 1024.3 -
21/04:30pm ENE 5 7 - - - - - - - 18.5 1024.3 -
21/04:00pm ENE 4 6 - - - - - - - 18.6 1024.3 -
21/03:30pm ENE 5 7 - - - - - - - 18.6 1024.6 -
21/03:00pm ENE 4 7 - - - - - - - 18.8 1024.8 -
21/02:30pm E 4 7 - - - - - - - 18.8 1025.0 -
21/02:00pm E 5 6 - - - - - - - 18.4 1025.2 -
21/01:30pm ENE 5 7 - - - - - - - 18.6 1025.3 -
21/01:00pm ENE 5 9 - - - - - - - 18.3 1025.2 -
21/12:30pm ENE 6 9 - - - - - - - 18.1 1025.3 -
21/12:00pm ENE 7 9 - - - - - - - 17.9 1025.5 -
21/11:30am ENE 7 10 - - - - - - - 17.7 1025.9 -
21/11:00am NE 6 8 - - - - - - - 17.5 1026.2 -
21/10:30am NE 6 9 - - - - - - - 17.2 1026.4 -
21/10:00am ENE 5 6 - - - - - - - 17.2 1026.5 -
21/09:30am NE 5 6 - - - - - - - 16.6 1026.4 -
21/09:00am NE 4 5 - - - - - - - 16.9 1026.4 -
21/08:30am NNW 3 5 - - - - - - - 17.2 1026.3 -

Other formats

Comma delimited format used in spreadsheet applications
http://www.bom.gov.au/fwo/IDN60701/IDN60701.95745.axf

JavaScript Object Notation format (JSON) in row-major order
http://www.bom.gov.au/fwo/IDN60701/IDN60701.95745.json

Data quality

Most of these data are generated automatically and are frequently updated. Quality checks on data are not normally performed. It is possible for incorrect values to appear. Refer to information at About Latest Weather Observations and please check the disclaimer before using these data.